createdAt,value
2023-03-21T06:02:56.869Z,101429.56
2023-03-21T06:05:33.783Z,101434.03
2023-03-21T06:08:03.779Z,101436.69
2023-03-21T06:10:40.772Z,101438.53
2023-03-21T06:13:17.830Z,101434.03
2023-03-21T06:15:47.931Z,101437.66
2023-03-21T06:18:26.835Z,101440.06
2023-03-21T06:20:57.584Z,101434.03
2023-03-21T06:23:33.862Z,101432.06
2023-03-21T06:26:10.822Z,101442.88
2023-03-21T06:28:40.884Z,101441.75
2023-03-21T06:31:17.872Z,101437.41
2023-03-21T06:33:50.537Z,101440.78
2023-03-21T06:36:27.856Z,101438.84
2023-03-21T06:39:04.857Z,101444.16
2023-03-21T06:41:35.022Z,101442.72
2023-03-21T06:44:11.827Z,101444.16
2023-03-21T06:46:48.973Z,101442.47
2023-03-21T06:49:22.140Z,101439.25
2023-03-21T06:51:58.909Z,101433.81
2023-03-21T06:54:29.131Z,101440.25
2023-03-21T06:57:05.876Z,101445.59
2023-03-21T06:59:42.863Z,101442.78
2023-03-21T07:02:14.105Z,101444.34
2023-03-21T07:04:52.837Z,101444.25
2023-03-21T07:07:23.074Z,101441.56
2023-03-21T07:09:59.851Z,101443.13
2023-03-21T07:12:29.913Z,101448.19
2023-03-21T07:15:06.931Z,101448.75
2023-03-21T07:17:37.054Z,101449.63
2023-03-21T07:20:18.883Z,101443.00
2023-03-21T07:22:49.016Z,101436.94
2023-03-21T07:25:26.877Z,101433.91
2023-03-21T07:27:57.173Z,101426.72
2023-03-21T07:30:33.923Z,101416.78
2023-03-21T07:33:03.968Z,101418.59
2023-03-21T07:35:43.988Z,101414.09
2023-03-21T07:38:16.846Z,101412.81
2023-03-21T07:40:53.877Z,101407.94
2023-03-21T07:43:24.073Z,101403.44
2023-03-21T07:46:01.003Z,101408.06
2023-03-21T07:48:31.944Z,101411.28
2023-03-21T07:51:12.904Z,101415.94
2023-03-21T07:53:43.887Z,101417.47
2023-03-21T07:56:19.943Z,101413.13
2023-03-21T07:58:56.930Z,101422.41
2023-03-21T08:01:28.181Z,101407.25
2023-03-21T08:04:04.970Z,101410.31
2023-03-21T08:06:37.578Z,101410.91
2023-03-21T08:09:13.934Z,101405.56
2023-03-21T08:11:44.066Z,101404.44
2023-03-21T08:14:20.964Z,101407.94
2023-03-21T08:16:51.092Z,101395.47
2023-03-21T08:19:27.979Z,101398.84
2023-03-21T08:22:09.057Z,101390.13
2023-03-21T08:24:39.200Z,101389.88
2023-03-21T08:27:16.034Z,101387.31
2023-03-21T08:29:52.933Z,101384.38
2023-03-21T08:32:28.454Z,101378.59
2023-03-21T08:35:04.995Z,101373.28
2023-03-21T08:37:43.983Z,101373.72
2023-03-21T08:40:17.135Z,101367.94
2023-03-21T08:42:54.027Z,101362.03
2023-03-21T08:45:24.540Z,101358.50
2023-03-21T08:48:00.997Z,101356.44
2023-03-21T08:50:31.844Z,101355.84
2023-03-21T08:53:10.996Z,101347.13
2023-03-21T08:55:41.253Z,101341.25
2023-03-21T08:58:18.054Z,101341.78
2023-03-21T09:00:48.140Z,101342.06
2023-03-21T09:03:27.022Z,101346.28
2023-03-21T09:05:58.426Z,101338.97
2023-03-21T09:08:38.016Z,101337.69
2023-03-21T09:11:08.838Z,101340.25
2023-03-21T09:13:45.055Z,101339.25
2023-03-21T09:16:22.100Z,101331.38
2023-03-21T09:18:55.823Z,101331.91
2023-03-21T09:21:34.077Z,101329.34
2023-03-21T09:24:07.366Z,101320.63
2023-03-21T09:26:44.103Z,101319.31
2023-03-21T09:29:16.036Z,101309.59
2023-03-21T09:31:53.043Z,101309.94
2023-03-21T09:34:30.067Z,101318.03
2023-03-21T09:37:00.119Z,101316.31
2023-03-21T09:39:39.121Z,101310.81
2023-03-21T09:42:22.877Z,101309.38
2023-03-21T09:45:15.116Z,101321.41
2023-03-21T09:47:53.241Z,101316.28
2023-03-21T09:50:38.143Z,101319.63
2023-03-21T09:53:14.964Z,101312.31
2023-03-21T09:55:54.082Z,101307.72
2023-03-21T09:58:37.152Z,101316.78
2023-03-21T10:01:22.430Z,101306.31
2023-03-21T10:04:01.241Z,101309.44
2023-03-21T10:06:32.220Z,101316.88
2023-03-21T10:09:16.145Z,101311.19
2023-03-21T10:11:53.408Z,101320.41
2023-03-21T10:14:35.128Z,101312.66
2023-03-21T10:17:20.615Z,101312.28
2023-03-21T10:20:04.139Z,101298.66
2023-03-21T10:22:41.102Z,101300.06
2023-03-21T10:25:18.015Z,101300.34
2023-03-21T10:28:00.120Z,101297.75
2023-03-21T10:30:35.210Z,101294.16
2023-03-21T10:33:17.159Z,101289.47
2023-03-21T10:35:59.197Z,101289.06
2023-03-21T10:38:29.614Z,101297.81
2023-03-21T10:41:06.092Z,101286.50
2023-03-21T10:43:42.177Z,101295.44
2023-03-21T10:46:22.253Z,101299.03
2023-03-21T10:49:03.283Z,101307.06
2023-03-21T10:51:38.543Z,101309.91
2023-03-21T10:54:18.109Z,101310.13
2023-03-21T10:56:57.070Z,101311.84
2023-03-21T10:59:44.221Z,101304.78
2023-03-21T11:02:22.561Z,101303.13
2023-03-21T11:05:00.444Z,101300.50
2023-03-21T11:07:40.165Z,101297.22
2023-03-21T11:10:30.466Z,101297.91
2023-03-21T11:13:11.217Z,101283.69
2023-03-21T11:16:03.218Z,101288.38
2023-03-21T11:18:35.009Z,101287.25
2023-03-21T11:21:14.224Z,101290.25
2023-03-21T11:23:54.206Z,101280.88
2023-03-21T11:26:32.817Z,101267.00
2023-03-21T11:29:11.205Z,101267.22
2023-03-21T11:31:44.983Z,101257.72
2023-03-21T11:34:37.270Z,101249.00
2023-03-21T11:37:07.834Z,101253.22
2023-03-21T11:39:48.285Z,101258.41
2023-03-21T11:42:40.252Z,101266.97
2023-03-21T11:45:18.223Z,101261.28
2023-03-21T11:47:59.272Z,101262.94
2023-03-21T11:50:35.756Z,101263.47
2023-03-21T11:53:34.298Z,101271.50
2023-03-21T11:56:32.275Z,101273.00
2023-03-21T11:59:30.844Z,101277.69
2023-03-21T12:02:42.324Z,101277.88
2023-03-21T12:05:22.778Z,101268.31
2023-03-21T12:08:09.282Z,101261.44
2023-03-21T12:10:56.300Z,101250.88
2023-03-21T12:13:44.249Z,101252.69
2023-03-21T12:16:36.376Z,101249.34
2023-03-21T12:19:42.389Z,101242.13
2023-03-21T12:22:34.259Z,101238.22
2023-03-21T12:25:19.288Z,101234.94
2023-03-21T12:27:57.685Z,101232.69
2023-03-21T12:30:46.321Z,101240.13
2023-03-21T12:33:58.310Z,101232.78
2023-03-21T12:36:44.158Z,101215.16
2023-03-21T12:39:37.278Z,101221.03
2023-03-21T12:42:41.669Z,101221.50
2023-03-21T12:45:34.218Z,101221.72
2023-03-21T12:48:22.557Z,101210.25
2023-03-21T12:51:03.296Z,101208.84
2023-03-21T12:53:47.761Z,101201.50
2023-03-21T12:56:33.312Z,101198.13
2023-03-21T12:59:16.858Z,101191.06
2023-03-21T13:01:57.421Z,101197.41
2023-03-21T13:04:39.839Z,101194.94
2023-03-21T13:07:23.368Z,101200.06
2023-03-21T13:10:02.450Z,101196.88
2023-03-21T13:12:48.383Z,101198.81
2023-03-21T13:15:55.437Z,101201.72
2023-03-21T13:18:59.245Z,101197.22
2023-03-21T13:21:55.338Z,101199.94
2023-03-21T13:24:35.328Z,101193.22
2023-03-21T13:27:17.418Z,101196.75
2023-03-21T13:29:54.662Z,101191.72
2023-03-21T13:32:39.412Z,101188.06
2023-03-21T13:35:21.303Z,101173.25
2023-03-21T13:38:02.406Z,101161.84
2023-03-21T13:40:41.292Z,101164.19
2023-03-21T13:43:44.366Z,101176.91
2023-03-21T13:46:50.566Z,101168.88
2023-03-21T13:49:39.413Z,101164.47
2023-03-21T13:52:36.417Z,101162.13
2023-03-21T13:55:17.624Z,101160.22
2023-03-21T13:57:57.410Z,101166.66
2023-03-21T14:00:35.138Z,101165.66
